sensor_id;sensor_type;location;lat;lon;timestamp;P1;durP1;ratioP1;P2;durP2;ratioP2
36233;SDS011;43467;50.890;5.982;2023-03-13T00:00:51;17.70;;;4.28;;
36233;SDS011;43467;50.890;5.982;2023-03-13T00:03:18;20.67;;;4.70;;
36233;SDS011;43467;50.890;5.982;2023-03-13T00:05:43;13.52;;;3.72;;
36233;SDS011;43467;50.890;5.982;2023-03-13T00:08:08;16.85;;;5.15;;
36233;SDS011;43467;50.890;5.982;2023-03-13T00:10:37;19.10;;;4.80;;
36233;SDS011;43467;50.890;5.982;2023-03-13T00:13:04;23.50;;;4.63;;
36233;SDS011;43467;50.890;5.982;2023-03-13T00:15:29;21.83;;;4.97;;
36233;SDS011;43467;50.890;5.982;2023-03-13T00:17:55;14.10;;;4.00;;
36233;SDS011;43467;50.890;5.982;2023-03-13T00:20:20;21.88;;;4.55;;
36233;SDS011;43467;50.890;5.982;2023-03-13T00:22:47;20.08;;;4.13;;
36233;SDS011;43467;50.890;5.982;2023-03-13T00:25:12;20.05;;;4.60;;
36233;SDS011;43467;50.890;5.982;2023-03-13T00:27:38;13.73;;;4.20;;
36233;SDS011;43467;50.890;5.982;2023-03-13T00:30:03;14.90;;;4.13;;
36233;SDS011;43467;50.890;5.982;2023-03-13T00:32:29;20.52;;;4.07;;
36233;SDS011;43467;50.890;5.982;2023-03-13T00:34:54;13.82;;;3.28;;
36233;SDS011;43467;50.890;5.982;2023-03-13T00:37:20;15.35;;;3.88;;
36233;SDS011;43467;50.890;5.982;2023-03-13T00:39:45;18.08;;;3.80;;
36233;SDS011;43467;50.890;5.982;2023-03-13T00:42:11;8.40;;;3.13;;
36233;SDS011;43467;50.890;5.982;2023-03-13T00:44:36;15.00;;;3.58;;
36233;SDS011;43467;50.890;5.982;2023-03-13T00:47:01;15.13;;;3.30;;
36233;SDS011;43467;50.890;5.982;2023-03-13T00:49:29;12.00;;;3.13;;
36233;SDS011;43467;50.890;5.982;2023-03-13T00:51:54;18.17;;;3.42;;
36233;SDS011;43467;50.890;5.982;2023-03-13T00:54:20;12.60;;;3.42;;
36233;SDS011;43467;50.890;5.982;2023-03-13T00:56:45;10.35;;;2.95;;
36233;SDS011;43467;50.890;5.982;2023-03-13T00:59:10;12.52;;;3.03;;
36233;SDS011;43467;50.890;5.982;2023-03-13T01:01:36;8.00;;;2.45;;
36233;SDS011;43467;50.890;5.982;2023-03-13T01:04:02;15.32;;;3.17;;
36233;SDS011;43467;50.890;5.982;2023-03-13T01:06:30;12.23;;;3.17;;
36233;SDS011;43467;50.890;5.982;2023-03-13T01:08:58;12.13;;;3.22;;
36233;SDS011;43467;50.890;5.982;2023-03-13T01:11:25;13.27;;;3.17;;
36233;SDS011;43467;50.890;5.982;2023-03-13T01:13:56;15.02;;;3.13;;
36233;SDS011;43467;50.890;5.982;2023-03-13T01:16:24;13.43;;;2.80;;
36233;SDS011;43467;50.890;5.982;2023-03-13T01:18:52;9.80;;;2.90;;
36233;SDS011;43467;50.890;5.982;2023-03-13T01:21:19;8.70;;;2.50;;
36233;SDS011;43467;50.890;5.982;2023-03-13T01:23:46;7.22;;;2.50;;
36233;SDS011;43467;50.890;5.982;2023-03-13T01:26:13;9.43;;;2.35;;
36233;SDS011;43467;50.890;5.982;2023-03-13T01:28:38;9.20;;;2.28;;
36233;SDS011;43467;50.890;5.982;2023-03-13T01:33:47;11.52;;;2.47;;
36233;SDS011;43467;50.890;5.982;2023-03-13T01:36:14;7.05;;;2.17;;
36233;SDS011;43467;50.890;5.982;2023-03-13T01:38:40;7.28;;;1.65;;
36233;SDS011;43467;50.890;5.982;2023-03-13T01:41:06;9.95;;;2.33;;
36233;SDS011;43467;50.890;5.982;2023-03-13T01:43:33;6.00;;;1.98;;
36233;SDS011;43467;50.890;5.982;2023-03-13T01:51:00;8.15;;;1.60;;
36233;SDS011;43467;50.890;5.982;2023-03-13T01:53:29;5.85;;;2.08;;
36233;SDS011;43467;50.890;5.982;2023-03-13T01:55:57;5.55;;;1.50;;
36233;SDS011;43467;50.890;5.982;2023-03-13T01:58:25;6.95;;;2.08;;
36233;SDS011;43467;50.890;5.982;2023-03-13T02:00:52;5.53;;;1.98;;
36233;SDS011;43467;50.890;5.982;2023-03-13T02:03:18;3.13;;;1.48;;
36233;SDS011;43467;50.890;5.982;2023-03-13T02:05:46;5.70;;;1.88;;
36233;SDS011;43467;50.890;5.982;2023-03-13T02:08:22;3.72;;;1.40;;
36233;SDS011;43467;50.890;5.982;2023-03-13T02:14:01;3.55;;;1.20;;
36233;SDS011;43467;50.890;5.982;2023-03-13T02:16:28;2.40;;;1.10;;
36233;SDS011;43467;50.890;5.982;2023-03-13T02:18:56;4.15;;;1.38;;
36233;SDS011;43467;50.890;5.982;2023-03-13T02:26:31;2.45;;;1.10;;
36233;SDS011;43467;50.890;5.982;2023-03-13T02:28:56;2.53;;;1.50;;
36233;SDS011;43467;50.890;5.982;2023-03-13T02:31:22;1.85;;;1.27;;
36233;SDS011;43467;50.890;5.982;2023-03-13T02:33:47;3.30;;;1.40;;
36233;SDS011;43467;50.890;5.982;2023-03-13T02:36:13;3.35;;;1.40;;
36233;SDS011;43467;50.890;5.982;2023-03-13T02:38:43;2.97;;;1.70;;
36233;SDS011;43467;50.890;5.982;2023-03-13T02:41:15;5.20;;;1.38;;
36233;SDS011;43467;50.890;5.982;2023-03-13T02:43:42;3.08;;;1.40;;
36233;SDS011;43467;50.890;5.982;2023-03-13T02:46:14;2.95;;;1.42;;
36233;SDS011;43467;50.890;5.982;2023-03-13T02:48:45;2.60;;;1.53;;
36233;SDS011;43467;50.890;5.982;2023-03-13T02:51:24;1.83;;;1.10;;
36233;SDS011;43467;50.890;5.982;2023-03-13T02:54:18;3.47;;;1.30;;
36233;SDS011;43467;50.890;5.982;2023-03-13T02:56:47;4.40;;;2.13;;
36233;SDS011;43467;50.890;5.982;2023-03-13T02:59:14;4.45;;;1.35;;
36233;SDS011;43467;50.890;5.982;2023-03-13T03:01:40;3.33;;;1.40;;
36233;SDS011;43467;50.890;5.982;2023-03-13T03:04:05;2.05;;;1.50;;
36233;SDS011;43467;50.890;5.982;2023-03-13T03:06:31;2.95;;;1.90;;
36233;SDS011;43467;50.890;5.982;2023-03-13T03:08:56;2.28;;;1.83;;
36233;SDS011;43467;50.890;5.982;2023-03-13T03:11:22;2.97;;;1.58;;
36233;SDS011;43467;50.890;5.982;2023-03-13T03:13:47;2.22;;;1.42;;
36233;SDS011;43467;50.890;5.982;2023-03-13T03:16:13;4.38;;;1.67;;
36233;SDS011;43467;50.890;5.982;2023-03-13T03:18:39;3.88;;;2.08;;
36233;SDS011;43467;50.890;5.982;2023-03-13T03:21:05;4.97;;;1.80;;
36233;SDS011;43467;50.890;5.982;2023-03-13T03:23:34;2.22;;;1.30;;
36233;SDS011;43467;50.890;5.982;2023-03-13T03:26:00;2.42;;;1.65;;
36233;SDS011;43467;50.890;5.982;2023-03-13T03:28:28;3.00;;;1.65;;
36233;SDS011;43467;50.890;5.982;2023-03-13T03:30:53;4.13;;;1.65;;
36233;SDS011;43467;50.890;5.982;2023-03-13T03:33:20;3.05;;;1.60;;
36233;SDS011;43467;50.890;5.982;2023-03-13T03:35:46;1.50;;;1.40;;
36233;SDS011;43467;50.890;5.982;2023-03-13T03:38:12;4.70;;;1.88;;
36233;SDS011;43467;50.890;5.982;2023-03-13T03:40:37;1.67;;;1.40;;
36233;SDS011;43467;50.890;5.982;2023-03-13T03:43:03;1.60;;;1.50;;
36233;SDS011;43467;50.890;5.982;2023-03-13T03:45:28;1.50;;;1.23;;
36233;SDS011;43467;50.890;5.982;2023-03-13T03:47:53;1.23;;;1.00;;
36233;SDS011;43467;50.890;5.982;2023-03-13T03:50:19;2.05;;;1.27;;
36233;SDS011;43467;50.890;5.982;2023-03-13T03:52:44;2.53;;;1.10;;
36233;SDS011;43467;50.890;5.982;2023-03-13T03:55:10;3.72;;;1.10;;
36233;SDS011;43467;50.890;5.982;2023-03-13T03:57:35;1.42;;;1.02;;
36233;SDS011;43467;50.890;5.982;2023-03-13T04:00:00;2.72;;;1.13;;
36233;SDS011;43467;50.890;5.982;2023-03-13T04:02:26;3.83;;;1.80;;
36233;SDS011;43467;50.890;5.982;2023-03-13T04:04:51;1.30;;;1.10;;
36233;SDS011;43467;50.890;5.982;2023-03-13T04:07:17;1.45;;;1.23;;
36233;SDS011;43467;50.890;5.982;2023-03-13T04:09:42;1.17;;;1.02;;
36233;SDS011;43467;50.890;5.982;2023-03-13T04:12:07;1.58;;;1.02;;
36233;SDS011;43467;50.890;5.982;2023-03-13T04:14:33;1.17;;;1.08;;
36233;SDS011;43467;50.890;5.982;2023-03-13T04:16:58;1.20;;;1.08;;
36233;SDS011;43467;50.890;5.982;2023-03-13T04:19:24;1.85;;;1.25;;
36233;SDS011;43467;50.890;5.982;2023-03-13T04:21:49;1.95;;;1.40;;
36233;SDS011;43467;50.890;5.982;2023-03-13T04:24:14;2.10;;;1.38;;
36233;SDS011;43467;50.890;5.982;2023-03-13T04:26:40;1.70;;;1.35;;
36233;SDS011;43467;50.890;5.982;2023-03-13T04:29:05;1.52;;;1.30;;
36233;SDS011;43467;50.890;5.982;2023-03-13T04:31:31;3.72;;;1.73;;
36233;SDS011;43467;50.890;5.982;2023-03-13T04:33:57;4.80;;;2.13;;
36233;SDS011;43467;50.890;5.982;2023-03-13T04:36:22;3.70;;;1.95;;
36233;SDS011;43467;50.890;5.982;2023-03-13T04:38:48;2.80;;;1.63;;
36233;SDS011;43467;50.890;5.982;2023-03-13T04:41:13;3.03;;;1.60;;
36233;SDS011;43467;50.890;5.982;2023-03-13T04:43:38;3.47;;;1.75;;
36233;SDS011;43467;50.890;5.982;2023-03-13T04:46:04;2.08;;;1.55;;
36233;SDS011;43467;50.890;5.982;2023-03-13T04:48:29;2.80;;;1.42;;
36233;SDS011;43467;50.890;5.982;2023-03-13T04:50:55;4.78;;;2.55;;
36233;SDS011;43467;50.890;5.982;2023-03-13T04:53:20;2.80;;;1.80;;
36233;SDS011;43467;50.890;5.982;2023-03-13T04:55:46;3.72;;;2.03;;
36233;SDS011;43467;50.890;5.982;2023-03-13T04:58:12;1.85;;;1.65;;
36233;SDS011;43467;50.890;5.982;2023-03-13T05:00:41;2.33;;;1.52;;
36233;SDS011;43467;50.890;5.982;2023-03-13T05:03:07;2.60;;;1.77;;
36233;SDS011;43467;50.890;5.982;2023-03-13T05:05:33;3.03;;;1.80;;
36233;SDS011;43467;50.890;5.982;2023-03-13T05:07:59;4.30;;;1.80;;
36233;SDS011;43467;50.890;5.982;2023-03-13T05:10:25;2.88;;;1.65;;
36233;SDS011;43467;50.890;5.982;2023-03-13T05:12:50;4.15;;;2.00;;
36233;SDS011;43467;50.890;5.982;2023-03-13T05:15:16;2.58;;;1.75;;
36233;SDS011;43467;50.890;5.982;2023-03-13T05:17:41;5.53;;;2.00;;
36233;SDS011;43467;50.890;5.982;2023-03-13T05:20:07;3.08;;;1.85;;
36233;SDS011;43467;50.890;5.982;2023-03-13T05:22:35;3.78;;;2.13;;
36233;SDS011;43467;50.890;5.982;2023-03-13T05:25:01;3.72;;;2.00;;
36233;SDS011;43467;50.890;5.982;2023-03-13T05:27:26;2.25;;;1.58;;
36233;SDS011;43467;50.890;5.982;2023-03-13T05:29:52;3.70;;;1.75;;
36233;SDS011;43467;50.890;5.982;2023-03-13T05:32:17;2.33;;;1.67;;
36233;SDS011;43467;50.890;5.982;2023-03-13T05:34:42;4.40;;;1.90;;
36233;SDS011;43467;50.890;5.982;2023-03-13T05:37:08;2.05;;;1.70;;
36233;SDS011;43467;50.890;5.982;2023-03-13T05:39:33;3.55;;;1.63;;
36233;SDS011;43467;50.890;5.982;2023-03-13T05:41:58;3.50;;;1.80;;
36233;SDS011;43467;50.890;5.982;2023-03-13T05:44:24;3.47;;;1.88;;
36233;SDS011;43467;50.890;5.982;2023-03-13T05:46:49;2.88;;;1.90;;
36233;SDS011;43467;50.890;5.982;2023-03-13T05:49:15;7.97;;;2.65;;
36233;SDS011;43467;50.890;5.982;2023-03-13T05:51:40;3.00;;;1.63;;
36233;SDS011;43467;50.890;5.982;2023-03-13T05:54:05;7.07;;;2.20;;
36233;SDS011;43467;50.890;5.982;2023-03-13T05:56:31;4.80;;;2.20;;
36233;SDS011;43467;50.890;5.982;2023-03-13T05:58:56;7.57;;;2.72;;
36233;SDS011;43467;50.890;5.982;2023-03-13T06:01:22;2.65;;;1.75;;
36233;SDS011;43467;50.890;5.982;2023-03-13T06:03:47;3.25;;;2.17;;
36233;SDS011;43467;50.890;5.982;2023-03-13T06:06:12;2.20;;;1.50;;
36233;SDS011;43467;50.890;5.982;2023-03-13T06:08:38;5.43;;;2.58;;
36233;SDS011;43467;50.890;5.982;2023-03-13T06:11:03;4.05;;;2.10;;
36233;SDS011;43467;50.890;5.982;2023-03-13T06:13:29;5.78;;;1.80;;
36233;SDS011;43467;50.890;5.982;2023-03-13T06:15:55;6.53;;;2.83;;
36233;SDS011;43467;50.890;5.982;2023-03-13T06:18:21;5.30;;;2.63;;
36233;SDS011;43467;50.890;5.982;2023-03-13T06:20:48;5.72;;;2.72;;
36233;SDS011;43467;50.890;5.982;2023-03-13T06:23:19;3.60;;;2.30;;
36233;SDS011;43467;50.890;5.982;2023-03-13T06:25:48;5.28;;;2.20;;
36233;SDS011;43467;50.890;5.982;2023-03-13T06:28:13;6.05;;;2.47;;
36233;SDS011;43467;50.890;5.982;2023-03-13T06:30:39;6.78;;;2.42;;
36233;SDS011;43467;50.890;5.982;2023-03-13T06:33:05;5.10;;;2.60;;
36233;SDS011;43467;50.890;5.982;2023-03-13T06:35:30;7.15;;;2.78;;
36233;SDS011;43467;50.890;5.982;2023-03-13T06:37:56;5.60;;;2.20;;
36233;SDS011;43467;50.890;5.982;2023-03-13T06:40:21;8.90;;;2.47;;
36233;SDS011;43467;50.890;5.982;2023-03-13T06:42:47;6.50;;;2.58;;
36233;SDS011;43467;50.890;5.982;2023-03-13T06:45:12;6.07;;;2.58;;
36233;SDS011;43467;50.890;5.982;2023-03-13T06:47:37;6.72;;;3.40;;
36233;SDS011;43467;50.890;5.982;2023-03-13T06:50:03;6.75;;;2.70;;
36233;SDS011;43467;50.890;5.982;2023-03-13T06:52:28;6.72;;;2.65;;
36233;SDS011;43467;50.890;5.982;2023-03-13T06:54:54;3.45;;;2.05;;
36233;SDS011;43467;50.890;5.982;2023-03-13T06:57:19;11.65;;;3.08;;
36233;SDS011;43467;50.890;5.982;2023-03-13T06:59:45;5.68;;;2.42;;
36233;SDS011;43467;50.890;5.982;2023-03-13T07:02:10;9.75;;;3.15;;
36233;SDS011;43467;50.890;5.982;2023-03-13T07:04:36;9.23;;;2.55;;
36233;SDS011;43467;50.890;5.982;2023-03-13T07:07:02;7.68;;;2.80;;
36233;SDS011;43467;50.890;5.982;2023-03-13T07:09:28;8.75;;;3.25;;
36233;SDS011;43467;50.890;5.982;2023-03-13T07:11:53;10.23;;;3.22;;
36233;SDS011;43467;50.890;5.982;2023-03-13T07:14:19;8.10;;;2.83;;
36233;SDS011;43467;50.890;5.982;2023-03-13T07:16:44;10.20;;;3.40;;
36233;SDS011;43467;50.890;5.982;2023-03-13T07:19:10;8.88;;;2.55;;
36233;SDS011;43467;50.890;5.982;2023-03-13T07:21:36;9.10;;;3.13;;
36233;SDS011;43467;50.890;5.982;2023-03-13T07:24:01;9.02;;;3.05;;
36233;SDS011;43467;50.890;5.982;2023-03-13T07:26:28;9.30;;;3.00;;
36233;SDS011;43467;50.890;5.982;2023-03-13T07:28:54;7.40;;;2.53;;
36233;SDS011;43467;50.890;5.982;2023-03-13T07:31:20;10.57;;;3.03;;
36233;SDS011;43467;50.890;5.982;2023-03-13T07:33:47;7.80;;;3.08;;
36233;SDS011;43467;50.890;5.982;2023-03-13T07:36:16;8.23;;;2.90;;
36233;SDS011;43467;50.890;5.982;2023-03-13T07:38:41;10.25;;;3.05;;
36233;SDS011;43467;50.890;5.982;2023-03-13T07:41:10;10.15;;;2.88;;
36233;SDS011;43467;50.890;5.982;2023-03-13T07:43:37;9.80;;;3.33;;
36233;SDS011;43467;50.890;5.982;2023-03-13T07:46:03;6.10;;;2.70;;
36233;SDS011;43467;50.890;5.982;2023-03-13T07:48:31;10.13;;;3.00;;
36233;SDS011;43467;50.890;5.982;2023-03-13T07:50:58;7.63;;;3.03;;
36233;SDS011;43467;50.890;5.982;2023-03-13T07:53:24;7.80;;;2.63;;
36233;SDS011;43467;50.890;5.982;2023-03-13T07:56:03;9.05;;;3.33;;
36233;SDS011;43467;50.890;5.982;2023-03-13T07:58:31;6.72;;;2.47;;
36233;SDS011;43467;50.890;5.982;2023-03-13T08:00:58;8.13;;;2.75;;
36233;SDS011;43467;50.890;5.982;2023-03-13T08:03:24;13.57;;;3.92;;
36233;SDS011;43467;50.890;5.982;2023-03-13T08:05:57;9.35;;;2.72;;
36233;SDS011;43467;50.890;5.982;2023-03-13T08:08:23;5.85;;;2.88;;
36233;SDS011;43467;50.890;5.982;2023-03-13T08:10:49;9.77;;;2.78;;
36233;SDS011;43467;50.890;5.982;2023-03-13T08:13:14;7.18;;;2.90;;
36233;SDS011;43467;50.890;5.982;2023-03-13T08:15:39;11.07;;;3.38;;
36233;SDS011;43467;50.890;5.982;2023-03-13T08:18:05;9.32;;;2.80;;
36233;SDS011;43467;50.890;5.982;2023-03-13T08:20:30;6.88;;;3.30;;
36233;SDS011;43467;50.890;5.982;2023-03-13T08:22:55;7.70;;;2.88;;
36233;SDS011;43467;50.890;5.982;2023-03-13T08:25:21;8.88;;;3.30;;
36233;SDS011;43467;50.890;5.982;2023-03-13T08:27:47;8.77;;;2.75;;
36233;SDS011;43467;50.890;5.982;2023-03-13T08:30:12;5.70;;;3.00;;
36233;SDS011;43467;50.890;5.982;2023-03-13T08:32:38;8.10;;;3.28;;
36233;SDS011;43467;50.890;5.982;2023-03-13T08:35:04;9.98;;;3.25;;
36233;SDS011;43467;50.890;5.982;2023-03-13T08:37:30;8.43;;;3.08;;
36233;SDS011;43467;50.890;5.982;2023-03-13T08:39:55;11.50;;;3.70;;
36233;SDS011;43467;50.890;5.982;2023-03-13T08:42:23;7.35;;;3.00;;
36233;SDS011;43467;50.890;5.982;2023-03-13T08:44:49;12.73;;;3.58;;
36233;SDS011;43467;50.890;5.982;2023-03-13T08:47:14;14.65;;;3.88;;
36233;SDS011;43467;50.890;5.982;2023-03-13T08:49:42;6.50;;;3.13;;
36233;SDS011;43467;50.890;5.982;2023-03-13T08:52:07;7.35;;;3.47;;
36233;SDS011;43467;50.890;5.982;2023-03-13T08:54:32;7.97;;;3.40;;
36233;SDS011;43467;50.890;5.982;2023-03-13T08:56:58;10.88;;;3.70;;
36233;SDS011;43467;50.890;5.982;2023-03-13T08:59:24;7.55;;;2.63;;
36233;SDS011;43467;50.890;5.982;2023-03-13T09:01:49;7.28;;;3.72;;
36233;SDS011;43467;50.890;5.982;2023-03-13T09:04:15;7.50;;;3.45;;
36233;SDS011;43467;50.890;5.982;2023-03-13T09:06:40;9.90;;;3.67;;
36233;SDS011;43467;50.890;5.982;2023-03-13T09:09:06;10.82;;;3.78;;
36233;SDS011;43467;50.890;5.982;2023-03-13T09:11:32;7.45;;;2.92;;
36233;SDS011;43467;50.890;5.982;2023-03-13T09:13:59;7.65;;;3.05;;
36233;SDS011;43467;50.890;5.982;2023-03-13T09:16:26;10.60;;;2.90;;
36233;SDS011;43467;50.890;5.982;2023-03-13T09:18:54;3.60;;;2.55;;
36233;SDS011;43467;50.890;5.982;2023-03-13T09:21:30;5.85;;;2.95;;
36233;SDS011;43467;50.890;5.982;2023-03-13T09:23:57;11.55;;;3.80;;
36233;SDS011;43467;50.890;5.982;2023-03-13T09:26:23;6.03;;;2.35;;
36233;SDS011;43467;50.890;5.982;2023-03-13T09:28:50;4.80;;;2.53;;
36233;SDS011;43467;50.890;5.982;2023-03-13T09:31:17;8.18;;;2.58;;
36233;SDS011;43467;50.890;5.982;2023-03-13T09:33:46;9.07;;;2.72;;
36233;SDS011;43467;50.890;5.982;2023-03-13T09:36:12;8.02;;;2.50;;
36233;SDS011;43467;50.890;5.982;2023-03-13T09:38:38;6.75;;;2.28;;
36233;SDS011;43467;50.890;5.982;2023-03-13T09:47:32;4.03;;;2.00;;
36233;SDS011;43467;50.890;5.982;2023-03-13T09:49:44;8.98;;;2.85;;
36233;SDS011;43467;50.890;5.982;2023-03-13T09:57:18;4.22;;;2.47;;
36233;SDS011;43467;50.890;5.982;2023-03-13T09:59:54;5.70;;;2.15;;
36233;SDS011;43467;50.890;5.982;2023-03-13T10:02:28;7.07;;;2.72;;
36233;SDS011;43467;50.890;5.982;2023-03-13T10:07:37;6.00;;;1.92;;
36233;SDS011;43467;50.890;5.982;2023-03-13T10:10:05;5.82;;;2.20;;
36233;SDS011;43467;50.890;5.982;2023-03-13T10:12:37;4.10;;;1.60;;
36233;SDS011;43467;50.890;5.982;2023-03-13T10:15:28;4.95;;;2.15;;
36233;SDS011;43467;50.890;5.982;2023-03-13T10:18:11;3.10;;;1.90;;
36233;SDS011;43467;50.890;5.982;2023-03-13T10:20:40;4.93;;;1.85;;
36233;SDS011;43467;50.890;5.982;2023-03-13T10:23:14;4.47;;;2.47;;
36233;SDS011;43467;50.890;5.982;2023-03-13T10:25:44;5.18;;;2.35;;
36233;SDS011;43467;50.890;5.982;2023-03-13T10:28:10;4.18;;;2.28;;
36233;SDS011;43467;50.890;5.982;2023-03-13T10:30:38;8.77;;;1.92;;
36233;SDS011;43467;50.890;5.982;2023-03-13T10:35:38;8.13;;;2.22;;
36233;SDS011;43467;50.890;5.982;2023-03-13T10:38:08;4.13;;;1.80;;
36233;SDS011;43467;50.890;5.982;2023-03-13T10:40:35;4.20;;;1.70;;
36233;SDS011;43467;50.890;5.982;2023-03-13T10:43:05;2.97;;;1.83;;
36233;SDS011;43467;50.890;5.982;2023-03-13T10:45:37;7.30;;;1.80;;
36233;SDS011;43467;50.890;5.982;2023-03-13T10:48:10;3.72;;;1.30;;
36233;SDS011;43467;50.890;5.982;2023-03-13T10:50:40;3.65;;;1.65;;
36233;SDS011;43467;50.890;5.982;2023-03-13T10:53:25;3.42;;;1.60;;
36233;SDS011;43467;50.890;5.982;2023-03-13T10:56:22;4.53;;;1.83;;
36233;SDS011;43467;50.890;5.982;2023-03-13T10:58:50;6.35;;;1.92;;
36233;SDS011;43467;50.890;5.982;2023-03-13T11:01:27;4.45;;;1.70;;
36233;SDS011;43467;50.890;5.982;2023-03-13T11:03:56;4.28;;;1.83;;
36233;SDS011;43467;50.890;5.982;2023-03-13T11:06:31;4.07;;;1.60;;
36233;SDS011;43467;50.890;5.982;2023-03-13T11:09:00;2.72;;;1.58;;
36233;SDS011;43467;50.890;5.982;2023-03-13T11:11:48;5.32;;;2.00;;
36233;SDS011;43467;50.890;5.982;2023-03-13T11:14:19;2.95;;;1.60;;
36233;SDS011;43467;50.890;5.982;2023-03-13T11:16:50;3.65;;;1.50;;
36233;SDS011;43467;50.890;5.982;2023-03-13T11:19:23;1.45;;;1.30;;
36233;SDS011;43467;50.890;5.982;2023-03-13T11:22:20;2.63;;;1.42;;
36233;SDS011;43467;50.890;5.982;2023-03-13T11:27:35;2.33;;;1.58;;
36233;SDS011;43467;50.890;5.982;2023-03-13T11:32:51;2.50;;;1.52;;
36233;SDS011;43467;50.890;5.982;2023-03-13T11:37:57;2.95;;;1.60;;
36233;SDS011;43467;50.890;5.982;2023-03-13T11:40:38;5.28;;;2.00;;
36233;SDS011;43467;50.890;5.982;2023-03-13T11:43:34;5.22;;;1.48;;
36233;SDS011;43467;50.890;5.982;2023-03-13T11:57:05;3.42;;;1.33;;
36233;SDS011;43467;50.890;5.982;2023-03-13T12:02:34;3.13;;;1.42;;
36233;SDS011;43467;50.890;5.982;2023-03-13T12:05:06;4.70;;;1.38;;
36233;SDS011;43467;50.890;5.982;2023-03-13T12:07:37;1.50;;;1.02;;
36233;SDS011;43467;50.890;5.982;2023-03-13T12:10:11;1.88;;;1.30;;
36233;SDS011;43467;50.890;5.982;2023-03-13T12:12:50;2.53;;;1.63;;
36233;SDS011;43467;50.890;5.982;2023-03-13T12:15:33;4.22;;;1.52;;
36233;SDS011;43467;50.890;5.982;2023-03-13T12:18:24;3.08;;;1.30;;
36233;SDS011;43467;50.890;5.982;2023-03-13T12:21:04;3.38;;;1.30;;
36233;SDS011;43467;50.890;5.982;2023-03-13T12:29:14;5.90;;;1.75;;
36233;SDS011;43467;50.890;5.982;2023-03-13T12:31:52;3.15;;;1.23;;
36233;SDS011;43467;50.890;5.982;2023-03-13T12:34:29;3.22;;;1.42;;
36233;SDS011;43467;50.890;5.982;2023-03-13T12:45:18;1.65;;;1.13;;
36233;SDS011;43467;50.890;5.982;2023-03-13T12:48:31;1.92;;;1.25;;
36233;SDS011;43467;50.890;5.982;2023-03-13T12:59:30;3.38;;;1.27;;
36233;SDS011;43467;50.890;5.982;2023-03-13T13:01:59;2.22;;;1.50;;
36233;SDS011;43467;50.890;5.982;2023-03-13T13:04:29;3.70;;;1.48;;
36233;SDS011;43467;50.890;5.982;2023-03-13T13:12:00;2.35;;;1.33;;
36233;SDS011;43467;50.890;5.982;2023-03-13T13:17:15;4.55;;;1.55;;
36233;SDS011;43467;50.890;5.982;2023-03-13T13:19:48;4.67;;;1.57;;
36233;SDS011;43467;50.890;5.982;2023-03-13T13:25:00;5.07;;;1.70;;
36233;SDS011;43467;50.890;5.982;2023-03-13T13:30:03;2.85;;;1.38;;
36233;SDS011;43467;50.890;5.982;2023-03-13T13:32:42;4.07;;;1.33;;
36233;SDS011;43467;50.890;5.982;2023-03-13T13:38:54;2.88;;;1.60;;
36233;SDS011;43467;50.890;5.982;2023-03-13T13:43:22;2.67;;;1.52;;
36233;SDS011;43467;50.890;5.982;2023-03-13T13:45:56;2.50;;;1.60;;
36233;SDS011;43467;50.890;5.982;2023-03-13T13:48:26;3.25;;;1.50;;
36233;SDS011;43467;50.890;5.982;2023-03-13T14:01:47;3.13;;;1.50;;
36233;SDS011;43467;50.890;5.982;2023-03-13T14:04:29;1.60;;;1.40;;
36233;SDS011;43467;50.890;5.982;2023-03-13T14:07:00;3.10;;;1.60;;
36233;SDS011;43467;50.890;5.982;2023-03-13T14:12:28;3.75;;;1.35;;
36233;SDS011;43467;50.890;5.982;2023-03-13T14:17:36;2.13;;;1.15;;
36233;SDS011;43467;50.890;5.982;2023-03-13T14:20:03;5.35;;;1.63;;
36233;SDS011;43467;50.890;5.982;2023-03-13T14:22:54;3.97;;;1.83;;
36233;SDS011;43467;50.890;5.982;2023-03-13T14:25:20;3.30;;;1.40;;
36233;SDS011;43467;50.890;5.982;2023-03-13T14:27:47;4.00;;;1.60;;
36233;SDS011;43467;50.890;5.982;2023-03-13T14:30:14;5.65;;;1.70;;
36233;SDS011;43467;50.890;5.982;2023-03-13T14:32:42;3.75;;;1.77;;
36233;SDS011;43467;50.890;5.982;2023-03-13T14:35:08;3.85;;;1.95;;
36233;SDS011;43467;50.890;5.982;2023-03-13T14:37:42;1.83;;;1.27;;
36233;SDS011;43467;50.890;5.982;2023-03-13T14:40:24;3.08;;;1.52;;
36233;SDS011;43467;50.890;5.982;2023-03-13T14:42:57;2.33;;;1.23;;
36233;SDS011;43467;50.890;5.982;2023-03-13T14:48:03;10.25;;;2.10;;
36233;SDS011;43467;50.890;5.982;2023-03-13T14:50:38;4.10;;;1.30;;
36233;SDS011;43467;50.890;5.982;2023-03-13T14:53:09;5.13;;;1.88;;
36233;SDS011;43467;50.890;5.982;2023-03-13T14:55:37;2.30;;;1.30;;
36233;SDS011;43467;50.890;5.982;2023-03-13T15:00:43;3.97;;;1.75;;
36233;SDS011;43467;50.890;5.982;2023-03-13T15:05:41;3.92;;;1.75;;
36233;SDS011;43467;50.890;5.982;2023-03-13T15:08:27;4.95;;;1.63;;
36233;SDS011;43467;50.890;5.982;2023-03-13T15:10:52;5.55;;;1.70;;
36233;SDS011;43467;50.890;5.982;2023-03-13T15:15:45;5.68;;;1.85;;
36233;SDS011;43467;50.890;5.982;2023-03-13T15:20:46;2.58;;;1.60;;
36233;SDS011;43467;50.890;5.982;2023-03-13T15:23:16;2.50;;;1.48;;
36233;SDS011;43467;50.890;5.982;2023-03-13T15:25:42;3.22;;;1.65;;
36233;SDS011;43467;50.890;5.982;2023-03-13T15:28:12;4.75;;;1.70;;
36233;SDS011;43467;50.890;5.982;2023-03-13T15:30:40;3.10;;;1.38;;
36233;SDS011;43467;50.890;5.982;2023-03-13T15:33:10;3.22;;;1.60;;
36233;SDS011;43467;50.890;5.982;2023-03-13T15:35:37;3.72;;;1.77;;
36233;SDS011;43467;50.890;5.982;2023-03-13T15:38:03;4.88;;;2.00;;
36233;SDS011;43467;50.890;5.982;2023-03-13T15:40:34;4.10;;;1.90;;
36233;SDS011;43467;50.890;5.982;2023-03-13T15:43:00;3.40;;;1.42;;
36233;SDS011;43467;50.890;5.982;2023-03-13T15:45:25;5.55;;;1.70;;
36233;SDS011;43467;50.890;5.982;2023-03-13T15:47:51;4.15;;;1.50;;
36233;SDS011;43467;50.890;5.982;2023-03-13T15:50:17;5.18;;;2.00;;
36233;SDS011;43467;50.890;5.982;2023-03-13T15:52:46;4.15;;;1.77;;
36233;SDS011;43467;50.890;5.982;2023-03-13T15:55:11;4.78;;;1.92;;
36233;SDS011;43467;50.890;5.982;2023-03-13T15:57:44;6.38;;;2.00;;
36233;SDS011;43467;50.890;5.982;2023-03-13T16:00:16;4.60;;;2.08;;
36233;SDS011;43467;50.890;5.982;2023-03-13T16:02:42;5.03;;;1.90;;
36233;SDS011;43467;50.890;5.982;2023-03-13T16:05:08;5.45;;;2.00;;
36233;SDS011;43467;50.890;5.982;2023-03-13T16:07:34;4.07;;;1.65;;
36233;SDS011;43467;50.890;5.982;2023-03-13T16:09:59;5.38;;;1.77;;
36233;SDS011;43467;50.890;5.982;2023-03-13T16:12:25;4.60;;;2.10;;
36233;SDS011;43467;50.890;5.982;2023-03-13T16:14:50;6.20;;;1.98;;
36233;SDS011;43467;50.890;5.982;2023-03-13T16:17:16;6.35;;;1.67;;
36233;SDS011;43467;50.890;5.982;2023-03-13T16:19:43;4.97;;;1.50;;
36233;SDS011;43467;50.890;5.982;2023-03-13T16:22:10;7.07;;;2.30;;
36233;SDS011;43467;50.890;5.982;2023-03-13T16:24:35;4.75;;;1.50;;
36233;SDS011;43467;50.890;5.982;2023-03-13T16:27:01;3.63;;;1.90;;
36233;SDS011;43467;50.890;5.982;2023-03-13T16:29:26;6.25;;;2.00;;
36233;SDS011;43467;50.890;5.982;2023-03-13T16:31:51;4.38;;;2.08;;
36233;SDS011;43467;50.890;5.982;2023-03-13T16:34:17;5.82;;;2.42;;
36233;SDS011;43467;50.890;5.982;2023-03-13T16:36:42;6.47;;;2.70;;
36233;SDS011;43467;50.890;5.982;2023-03-13T16:39:10;8.02;;;2.20;;
36233;SDS011;43467;50.890;5.982;2023-03-13T16:41:40;8.25;;;2.65;;
36233;SDS011;43467;50.890;5.982;2023-03-13T16:44:05;8.63;;;2.25;;
36233;SDS011;43467;50.890;5.982;2023-03-13T16:46:34;6.72;;;1.60;;
36233;SDS011;43467;50.890;5.982;2023-03-13T16:49:01;7.50;;;2.20;;
36233;SDS011;43467;50.890;5.982;2023-03-13T16:51:28;5.38;;;2.10;;
36233;SDS011;43467;50.890;5.982;2023-03-13T16:53:54;7.13;;;2.55;;
36233;SDS011;43467;50.890;5.982;2023-03-13T16:56:31;12.20;;;2.55;;